Flag for USA

Past Weather in 29°45'12.8"N, 95°12'48.8"W, USA — Yesterday and Last 2 Weeks

Currently: 71 °F. Fog. (Weather station: Houston Hobby Airport, USA). See more current weather

Past Weather in 29°45'12.8"N, 95°12'48.8"W — Graph

°F

29°45'12.8"N, 95°12'48.8"W Temperature Yesterday

Maximum temperature yesterday: 82 °F (at 12:53 pm)
Minimum temperature yesterday: 71 °F (at 3:53 am)
Average temperature yesterday: 75 °F

High & Low Weather Summary for the Past Weeks

 TemperatureHumidityPressure
High82 °F (Feb 28, 12:53 pm)93% (Feb 17, 1:41 pm)30.57 "Hg (Feb 17, 1:41 pm)
Low15 °F (Feb 16, 6:53 am)15% (Feb 22, 4:53 pm)29.85 "Hg (Feb 28, 3:24 pm)
Average53 °F74%30.12 "Hg
* Reported Feb 14 4:53 am — Mar 1 4:53 am, 29°45'12.8"N, 95°12'48.8"W. Weather by CustomWeather, © 2021

Note: Actual official high and low records may vary slightly from our data, if they occured in-between our weather recording intervals... More about our weather records

29°45'12.8"N, 95°12'48.8"W Weather History for the Previous 24 Hours

Scroll right to see more
 ConditionsComfort  
Time TempWeatherWind HumidityBarometerVisibility
4:53 am
Mon, Mar 1
71 °FFog.7 mph93%29.91 "Hg6 mi
3:53 am71 °FFog.9 mph93%29.91 "Hg6 mi
2:53 am72 °FFog.8 mph91%29.92 "Hg6 mi
2:39 am72 °FLow clouds.6 mph91%29.91 "Hg7 mi
1:53 am72 °FFog.6 mph91%29.92 "Hg5 mi
12:53 am72 °FFog.8 mph91%29.92 "Hg4 mi
12:07 am72 °FFog.8 mph91%29.91 "Hg4 mi
11:53 pm
Sun, Feb 28
72 °FFog.8 mph91%29.93 "Hg5 mi
10:53 pm72 °FLow clouds.8 mph91%29.93 "Hg7 mi
9:53 pm73 °FLow clouds.12 mph88%29.93 "Hg7 mi
8:53 pm73 °FLow clouds.12 mph88%29.92 "Hg7 mi
8:19 pm74 °FLow clouds.10 mph85%29.89 "Hg7 mi
7:53 pm74 °FMostly cloudy.9 mph85%29.90 "Hg7 mi
6:53 pm75 °FPassing clouds.10 mph82%29.88 "Hg8 mi
5:53 pm76 °FCloudy.12 mph80%29.87 "Hg8 mi
4:53 pm79 °FCloudy.14 mph69%29.86 "Hg10 mi
3:53 pm81 °FBroken clouds.17 mph65%29.86 "Hg10 mi
3:24 pm81 °FPartly sunny.17 mph65%29.85 "Hg9 mi
2:53 pm81 °FScattered clouds.17 mph65%29.87 "Hg10 mi
2:41 pm82 °FBroken clouds.16 mph63%29.86 "Hg10 mi
1:53 pm82 °FBroken clouds.14 mph63%29.90 "Hg10 mi
12:53 pm82 °FBroken clouds.14 mph63%29.93 "Hg10 mi
11:53 am79 °FMostly cloudy.14 mph69%29.94 "Hg10 mi
10:53 am77 °FOvercast.13 mph77%29.95 "Hg9 mi
9:53 am75 °FMostly cloudy.10 mph79%29.95 "Hg8 mi
8:53 am73 °FCloudy.9 mph84%29.95 "Hg8 mi
8:41 am72 °FMore clouds than sun.8 mph87%29.93 "Hg8 mi
7:53 am72 °FDrizzle. Fog.8 mph87%29.94 "Hg5 mi
6:53 am72 °FLow clouds.7 mph87%29.92 "Hg7 mi
6:26 am72 °FFog.8 mph87%29.90 "Hg4 mi
Weather by CustomWeather, © 2021

See weather overview